METAR Data
IDs: Format: Raw Decoded Include TAF

Data at: 0030 UTC 25 Apr 2019

PAKP 242356Z AUTO 18009KT 10SM FEW042 BKN075 BKN090 00/M06 A3011 RMK AO2 SLP258 60000 T00001061 10000 21083 53009 FZRANO
PAKP 242256Z AUTO 19008KT 10SM SCT085 M01/M07 A3010 RMK AO2 SLP255 T10111067 FZRANO
PAKP 242156Z AUTO 16011KT 10SM SCT080 M03/M08 A3009 RMK AO2 SNB33E46 SLP251 P0000 T10281078 FZRANO
PAKP 242056Z AUTO 19010KT 10SM OVC070 M04/M09 A3008 RMK AO2 SLP249 60000 T10391089 51013 FZRANO
PAKP 241956Z AUTO 20007KT 10SM CLR M05/M10 A3007 RMK AO2 SLP245 T10501100 FZRANO
PAKP 241856Z AUTO 18012KT 10SM FEW031 OVC065 M08/M12 A3006 RMK AO2 SNE11 SLP242 P0000 T10781117 FZRANO
PAKP 241756Z AUTO 18013KT 9SM -SN FEW041 OVC055 M08/M12 A3004 RMK AO2 SNB47 SLP237 P0000 60000 T10831122 11083 21189 53012 FZRANO
PAKP 241656Z AUTO 18012KT 10SM SCT080 M10/M13 A3003 RMK AO2 SLP232 T11001128 FZRANO
PAKP 241556Z AUTO 18012KT 10SM CLR M10/M14 A3001 RMK AO2 SNE14 SLP227 P0000 T11001139 FZRANO
PAKP 241456Z AUTO 21005KT 9SM -SN OVC065 M14/M16 A3000 RMK AO2 SNB51 SLP227 P0000 60000 T11441156 53005 FZRANO
PAKP 241356Z AUTO 00000KT 10SM OVC055 M17/M19 A3000 RMK AO2 SLP227 T11721189 FZRANO
PAKP 241256Z AUTO 20003KT 10SM SCT060 OVC090 M18/M21 A2999 RMK AO2 SLP225 T11831206 FZRANO
PAKP 241056Z AUTO 00000KT 10SM CLR M18/M19 A2998 RMK AO2 SLP221 T11781194 FZRANO
PAKP 240956Z AUTO 00000KT 10SM FEW080 M17/M19 A2996 RMK AO2 SLP215 T11721194 FZRANO
PAKP 240856Z AUTO 35003KT 10SM BKN080 M16/M18 A2995 RMK AO2 SLP211 T11611183 411001161 51011 FZRANO
PAKP 240756Z AUTO 01003KT 10SM BKN080 M15/M17 A2994 RMK AO2 SLP207 T11501172 FZRANO
PAKP 240656Z AUTO 06007KT 10SM SCT075 M14/M17 A2993 RMK AO2 SLP203 T11441167 FZRANO
PAKP 240556Z AUTO 04005KT 10SM CLR M14/M17 A2991 RMK AO2 SLP199 60000 T11441167 11100 21144 53012 FZRANO
PAKP 240456Z AUTO 03010KT 10SM OVC080 M12/M16 A2990 RMK AO2 SLP191 T11221156 FZRANO
PAKP 240256Z AUTO 04013KT 9SM -SN CLR M10/M14 A2988 RMK AO2 SLP183 P0000 60000 T11001144 53013 FZRANO
PAKP 240156Z AUTO 03015KT 9SM -SN CLR M11/M14 A2986 RMK AO2 SLP178 P0000 T11061144 FZRANO
PAKP 240056Z AUTO 04014KT 9SM -SN CLR M10/M14 A2984 RMK AO2 SLP172 P0000 T11001144 FZRANO
PAKP 232356Z AUTO 04015KT 9SM -SN CLR M10/M14 A2983 RMK AO2 SLP169 P0000 60000 T11001144 11100 21122 51009 FZRANO
PAKP 232256Z AUTO 04015KT 8SM -SN CLR M11/M14 A2982 RMK AO2 SLP167 P0000 T11061144 FZRANO
PAKP 232156Z AUTO 03014KT 8SM -SN CLR M11/M15 A2982 RMK AO2 SLP164 P0000 T11111150 FZRANO
PAKP 232111Z AUTO 04014KT 6SM -SN SCT004 SCT012 M11/M15 A2981 RMK AO2 P0000 FZRANO
PAKP 232104Z AUTO 04013KT 8SM -SN SCT004 BKN012 BKN080 M11/M15 A2981 RMK AO2 P0000 FZRANO
PAKP 232056Z AUTO 03014KT 7SM -SN BKN004 BKN012 BKN080 M12/M16 A2981 RMK AO2 CIG 002V006 SLP160 P0000 60000 T11171156 53012 FZRANO
PAKP 232019Z AUTO 04012KT 2SM -SN BKN004 OVC012 M11/M16 A2980 RMK AO2 VIS 1V5 P0000 FZRANO
PAKP 232011Z AUTO 03012KT 1 3/4SM -SN OVC004 M12/M16 A2980 RMK AO2 P0000 FZRANO
PAKP 231956Z AUTO 03014KT 2SM -SN BKN004 OVC010 M12/M16 A2979 RMK AO2 VIS 1 1/4V5 SLP155 P0000 T11171156 FZRANO
PAKP 231934Z AUTO 03013KT 1 3/4SM -SN BKN004 OVC008 M12/M16 A2979 RMK AO2 VIS 3/4V4 P0000 FZRANO
PAKP 231927Z AUTO 03014KT 2SM -SN BKN004 BKN008 OVC013 M12/M16 A2979 RMK AO2 VIS 1V5 P0000 FZRANO
PAKP 231915Z AUTO 03012KT 1 1/2SM -SN SCT004 OVC008 M12/M16 A2978 RMK AO2 CIG 006V011 P0000 FZRANO
PAKP 231906Z AUTO 03013KT 1SM -SN OVC008 M12/M16 A2978 RMK AO2 CIG 002V011 P0000 FZRANO
PAKP 231856Z AUTO 03012KT 1 1/4SM -SN OVC008 M12/M16 A2978 RMK AO2 CIG 002V010 SLP151 P0000 T11221161 FZRANO
PAKP 231832Z AUTO 03013KT 1SM -SN OVC006 M13/M16 A2978 RMK AO2 CIG 004V009 P0000 FZRANO
PAKP 231822Z AUTO 03013KT 1 1/4SM -SN OVC006 M13/M16 A2977 RMK AO2 VIS 3/4V3 CIG 004V009 P0000 FZRANO
PAKP 231756Z AUTO 03012KT 1SM -SN OVC006 M13/M16 A2977 RMK AO2 CIG 002V010 SLP149 P0000 60000 T11331161 11133 21150 51011 FZRANO
PAKP 231716Z AUTO 03012KT 3/4SM -SN BR BKN006 OVC010 M14/M16 A2976 RMK AO2 CIG 002V008 P0000 FZRANO
PAKP 231708Z AUTO 03012KT 1SM -SN BR OVC008 M14/M16 A2976 RMK AO2 CIG 003V009 P0000 FZRANO
PAKP 231656Z AUTO 03013KT 1 1/4SM -SN BR OVC008 M14/M16 A2976 RMK AO2 SLP147 P0000 T11391161 FZRANO
PAKP 231643Z AUTO 03012KT 1SM -SN BR OVC008 M14/M16 A2976 RMK AO2 P0000 FZRANO
PAKP 231616Z AUTO 04011KT 1 1/4SM -SN BR OVC008 M14/M16 A2976 RMK AO2 CIG 003V009 P0000 FZRANO
PAKP 231607Z AUTO 04013KT 3/4SM -SN BR OVC008 M14/M16 A2976 RMK AO2 CIG 003V010 P0000 FZRANO
PAKP 231556Z AUTO 04011KT 1 1/4SM -SN BR OVC008 M14/M17 A2976 RMK AO2 CIG 003V010 SLP144 P0000 T11441167 FZRANO
PAKP 231545Z AUTO 04013KT 1SM -SN BR FEW003 OVC008 M14/M17 A2975 RMK AO2 P0000 FZRANO
PAKP 231531Z AUTO 04013KT 1 1/4SM -SN BR OVC008 M15/M17 A2975 RMK AO2 CIG 003V011 P0000 FZRANO
PAKP 231521Z AUTO 04014KT 1SM -SN BR OVC008 M15/M17 A2974 RMK AO2 CIG 003V011 P0000 FZRANO
PAKP 231506Z AUTO 04014KT 1SM -SN BR FEW004 OVC010 M15/M17 A2974 RMK AO2 CIG 007V011 P0000 FZRANO
PAKP 231456Z AUTO 04013KT 3/4SM -SN BR SCT004 OVC008 M15/M17 A2974 RMK AO2 SLP136 P0000 60000 T11501167 53010 FZRANO
PAKP 231447Z AUTO 04012KT 3/4SM -SN BR FEW004 OVC008 M15/M17 A2973 RMK AO2 P0000 FZRANO
PAKP 231421Z AUTO 04013KT 1SM -SN BR SCT004 OVC010 M15/M17 A2972 RMK AO2 P0000 FZRANO
PAKP 231405Z AUTO 04013KT 3/4SM -SN BR SCT004 OVC010 M15/M17 A2972 RMK AO2 CIG 006V011 P0000 FZRANO
PAKP 231356Z AUTO 04012KT 1 1/4SM -SN BR FEW004 OVC010 M15/M17 A2972 RMK AO2 CIG 007V011 SLP130 P0000 T11501167 FZRANO
PAKP 231338Z AUTO 05013KT 2SM -SN BR OVC010 M15/M17 A2972 RMK AO2 VIS 1 3/4V3 P0000 FZRANO
PAKP 231319Z AUTO 05013KT 1 3/4SM -SN BR FEW002 OVC010 M15/M17 A2971 RMK AO2 CIG 007V012 P0000 FZRANO
PAKP 231312Z AUTO 05013KT 1 1/4SM -SN BR OVC010 M15/M17 A2971 RMK AO2 VIS 1V2 CIG 007V012 P0000 FZRANO
PAKP 231301Z AUTO 05013KT 2 1/2SM -SN BR FEW004 OVC010 M16/M17 A2971 RMK AO2 P0000 FZRANO
PAKP 231252Z AUTO 05013KT 3SM -SN BR FEW004 BKN010 OVC013 M16/M17 A2970 RMK AO2 CIG 008V012 SLP125 P0000 T11561172 FZRANO
PAKP 231251Z AUTO 05014KT 3SM -SN BR FEW004 BKN010 OVC013 M16/M17 A2970 RMK AO2 CIG 008V012 P0000 FZRANO
PAKP 231240Z AUTO 04012KT 1 1/2SM -SN BR FEW004 OVC010 M16/M17 A2970 RMK AO2 CIG 007V013 P0000 FZRANO